Time;durP1;ratioP1;P1;durP2;ratioP2;P2;SDS_P1;SDS_P2;PMS_P1;PMS_P2;Temp;Humidity;BMP_temperature;BMP_pressure;BME280_temperature;BME280_humidity;BME280_pressure;Samples;Min_cycle;Max_cycle;Signal;HPM_P1;HPM_P2
2023/10/21 00:01:05;;;;;;;14.55;9.80;;;9.00;99.90;;;;;;5043703;28;20048;-67
2023/10/21 00:03:51;;;;;;;15.70;11.38;;;9.00;99.90;;;;;;5030252;28;20042;-67
2023/10/21 00:06:38;;;;;;;15.93;10.82;;;9.10;99.90;;;;;;5017458;28;20526;-68
2023/10/21 00:09:24;;;;;;;19.23;12.05;;;9.10;99.90;;;;;;5037065;28;20055;-68
2023/10/21 00:12:10;;;;;;;17.75;10.90;;;9.10;99.90;;;;;;5045397;28;20045;-67
2023/10/21 00:14:56;;;;;;;19.92;12.32;;;9.10;99.90;;;;;;5051054;28;20059;-67
2023/10/21 00:17:41;;;;;;;17.63;11.90;;;9.20;99.90;;;;;;5049439;28;20047;-67
2023/10/21 00:20:30;;;;;;;17.63;12.43;;;9.10;99.90;;;;;;5032545;28;20482;-67
2023/10/21 00:23:16;;;;;;;16.25;11.15;;;9.20;99.90;;;;;;5045844;28;20047;-67
2023/10/21 00:26:03;;;;;;;17.83;11.77;;;9.20;99.90;;;;;;5045643;28;20041;-67
2023/10/21 00:28:49;;;;;;;17.75;11.85;;;9.20;99.90;;;;;;5049598;28;20052;-67
2023/10/21 00:31:35;;;;;;;16.70;12.00;;;9.20;99.90;;;;;;5047605;28;20459;-67
2023/10/21 00:34:21;;;;;;;20.67;12.88;;;9.20;99.90;;;;;;5048919;28;20449;-68
2023/10/21 00:37:08;;;;;;;19.90;11.65;;;9.20;99.90;;;;;;5049133;28;20426;-68
2023/10/21 00:39:54;;;;;;;17.38;11.95;;;9.20;99.90;;;;;;5044865;28;20047;-67
2023/10/21 00:42:39;;;;;;;22.30;12.65;;;9.20;99.90;;;;;;5039746;28;20041;-68
2023/10/21 00:45:25;;;;;;;18.48;12.15;;;9.20;99.90;;;;;;5030553;28;20072;-67
2023/10/21 00:48:11;;;;;;;21.02;13.93;;;9.20;99.90;;;;;;5030559;28;20052;-67
2023/10/21 00:50:58;;;;;;;19.42;12.43;;;9.10;99.90;;;;;;5033217;28;20529;-68
2023/10/21 00:53:44;;;;;;;16.52;12.35;;;9.20;99.90;;;;;;5030235;28;20057;-67
2023/10/21 00:56:30;;;;;;;19.80;12.18;;;9.20;99.90;;;;;;5029548;28;20525;-68
2023/10/21 00:59:17;;;;;;;21.25;13.00;;;9.20;99.90;;;;;;5038444;28;20151;-66
2023/10/21 01:02:03;;;;;;;19.00;13.02;;;9.20;99.90;;;;;;5045517;28;20047;-67
2023/10/21 01:04:49;;;;;;;17.60;12.45;;;9.20;99.90;;;;;;5029741;28;20143;-68
2023/10/21 01:07:35;;;;;;;26.80;14.77;;;9.20;99.90;;;;;;5030069;28;20033;-67
2023/10/21 01:10:21;;;;;;;19.40;12.90;;;9.20;99.90;;;;;;5044820;28;20055;-67
2023/10/21 01:13:07;;;;;;;25.20;14.60;;;9.20;99.90;;;;;;5042104;28;20119;-68
2023/10/21 01:15:53;;;;;;;22.42;14.15;;;9.30;99.90;;;;;;5039558;28;20072;-67
2023/10/21 01:18:39;;;;;;;19.50;13.98;;;9.30;99.90;;;;;;5040839;28;20035;-68
2023/10/21 01:21:25;;;;;;;21.65;15.07;;;9.30;99.90;;;;;;5049885;28;20422;-68
2023/10/21 01:24:11;;;;;;;24.27;14.20;;;9.40;99.90;;;;;;5037594;28;20073;-68
2023/10/21 01:26:57;;;;;;;21.05;14.35;;;9.40;99.90;;;;;;5038757;28;20123;-68
2023/10/21 01:29:43;;;;;;;22.65;15.15;;;9.40;99.90;;;;;;5047837;28;20057;-68
2023/10/21 01:32:29;;;;;;;22.27;15.05;;;9.40;99.90;;;;;;5041698;28;20029;-68
2023/10/21 01:35:16;;;;;;;22.90;13.88;;;9.40;99.90;;;;;;5025825;28;20041;-68
2023/10/21 01:38:02;;;;;;;24.27;14.55;;;9.40;99.90;;;;;;5014281;28;20383;-68
2023/10/21 01:40:49;;;;;;;21.38;14.95;;;9.40;99.90;;;;;;5044233;28;20453;-67
2023/10/21 01:43:35;;;;;;;23.77;14.52;;;9.50;99.90;;;;;;5027838;28;20132;-67
2023/10/21 01:46:21;;;;;;;23.45;15.15;;;9.50;99.90;;;;;;5029215;28;20676;-68
2023/10/21 01:49:07;;;;;;;24.65;15.18;;;9.50;99.90;;;;;;5028455;28;20045;-68
2023/10/21 01:51:53;;;;;;;22.15;15.25;;;9.50;99.90;;;;;;5032016;28;20037;-68
2023/10/21 01:54:43;;;;;;;26.50;15.38;;;9.50;99.90;;;;;;5029120;28;20509;-68
2023/10/21 01:57:31;;;;;;;25.25;15.90;;;9.50;99.90;;;;;;5028394;28;20127;-67
2023/10/21 02:00:20;;;;;;;26.23;16.80;;;9.50;99.90;;;;;;5028215;28;20507;-67
2023/10/21 02:03:06;;;;;;;24.20;15.65;;;9.50;99.90;;;;;;5015882;28;20049;-68
2023/10/21 02:05:52;;;;;;;21.63;15.40;;;9.50;99.90;;;;;;5028535;28;20363;-68
2023/10/21 02:08:38;;;;;;;24.65;15.15;;;9.60;99.90;;;;;;5041047;28;20061;-67
2023/10/21 02:11:24;;;;;;;25.83;16.77;;;9.50;99.90;;;;;;5035134;28;20052;-68
2023/10/21 02:14:10;;;;;;;28.42;16.25;;;9.60;99.90;;;;;;5029688;28;20057;-68
2023/10/21 02:16:56;;;;;;;27.48;17.13;;;9.60;99.90;;;;;;5039253;28;20056;-68
2023/10/21 02:19:42;;;;;;;29.77;15.35;;;9.60;99.90;;;;;;5047391;28;20473;-68
2023/10/21 02:22:28;;;;;;;23.67;16.65;;;9.60;99.90;;;;;;5045130;28;20049;-69
2023/10/21 02:25:15;;;;;;;25.85;15.85;;;9.60;99.90;;;;;;5019482;28;20034;-68
2023/10/21 02:28:04;;;;;;;27.27;16.05;;;9.60;99.90;;;;;;5040172;28;20077;-68
2023/10/21 02:30:50;;;;;;;26.42;16.67;;;9.60;99.90;;;;;;5030364;28;20030;-69
2023/10/21 02:33:35;;;;;;;27.50;16.20;;;9.60;99.90;;;;;;5047358;28;20128;-68
2023/10/21 02:36:22;;;;;;;24.17;16.05;;;9.60;99.90;;;;;;5016905;28;20060;-68
2023/10/21 02:39:08;;;;;;;26.05;16.67;;;9.60;99.90;;;;;;5028979;28;20520;-69
2023/10/21 02:41:54;;;;;;;25.77;16.52;;;9.60;99.90;;;;;;5045855;28;20045;-68
2023/10/21 02:44:39;;;;;;;22.80;16.55;;;9.60;99.90;;;;;;5042513;28;20425;-68
2023/10/21 02:47:26;;;;;;;24.50;16.23;;;9.70;99.90;;;;;;5041404;28;20048;-68
2023/10/21 02:50:12;;;;;;;24.50;15.90;;;9.70;99.90;;;;;;5050800;28;20599;-68
2023/10/21 02:52:58;;;;;;;26.88;16.23;;;9.70;99.90;;;;;;5039255;28;20052;-69
2023/10/21 02:55:44;;;;;;;25.00;15.93;;;9.70;99.90;;;;;;5042930;28;20497;-69
2023/10/21 02:58:30;;;;;;;24.92;15.65;;;9.70;99.90;;;;;;5031139;28;20053;-69
2023/10/21 03:01:20;;;;;;;25.05;16.17;;;9.80;99.90;;;;;;5043286;28;20149;-69
2023/10/21 03:04:07;;;;;;;28.38;16.00;;;9.80;99.90;;;;;;5036436;28;20045;-69
2023/10/21 03:06:53;;;;;;;22.70;15.45;;;9.80;99.90;;;;;;5032870;28;20041;-68
2023/10/21 03:09:39;;;;;;;29.52;15.88;;;9.80;99.90;;;;;;5031488;28;20053;-68
2023/10/21 03:12:25;;;;;;;33.75;16.88;;;9.80;99.90;;;;;;5031993;28;20057;-68
2023/10/21 03:15:11;;;;;;;28.55;17.10;;;9.80;99.90;;;;;;5030575;28;20072;-69
2023/10/21 03:17:57;;;;;;;26.15;15.30;;;9.80;99.90;;;;;;5032818;28;20049;-68
2023/10/21 03:20:43;;;;;;;24.92;15.40;;;9.80;99.90;;;;;;5033312;28;20041;-66
2023/10/21 03:23:29;;;;;;;29.10;15.70;;;9.80;99.90;;;;;;5030582;28;20044;-67
2023/10/21 03:26:15;;;;;;;25.13;16.77;;;9.80;99.90;;;;;;5030512;28;20037;-68
2023/10/21 03:29:01;;;;;;;23.35;14.95;;;9.80;99.90;;;;;;5037667;28;20056;-68
2023/10/21 03:31:47;;;;;;;22.92;15.30;;;9.70;99.90;;;;;;5031908;28;20099;-69
2023/10/21 03:34:33;;;;;;;22.77;15.98;;;9.80;99.90;;;;;;5031828;28;20123;-68
2023/10/21 03:37:19;;;;;;;26.80;16.13;;;9.80;99.90;;;;;;5043706;28;20074;-67
2023/10/21 03:40:10;;;;;;;30.17;16.58;;;9.80;99.90;;;;;;5034307;28;20140;-68
2023/10/21 03:42:56;;;;;;;20.90;13.48;;;9.80;99.90;;;;;;5031109;28;20045;-68
2023/10/21 03:45:42;;;;;;;34.47;15.95;;;9.80;99.90;;;;;;5043805;28;20107;-68
2023/10/21 03:48:27;;;;;;;34.78;15.48;;;9.80;99.90;;;;;;5048362;28;20056;-68
2023/10/21 03:51:13;;;;;;;32.80;14.38;;;9.80;99.90;;;;;;5049347;28;20128;-68
2023/10/21 03:54:00;;;;;;;27.45;15.20;;;9.80;99.90;;;;;;5041690;28;20103;-68
2023/10/21 03:56:47;;;;;;;33.22;15.13;;;9.80;99.90;;;;;;5044876;28;20037;-67
2023/10/21 03:59:33;;;;;;;37.72;15.73;;;9.80;99.90;;;;;;5044486;28;20037;-69
2023/10/21 04:02:19;;;;;;;21.98;15.13;;;9.80;99.90;;;;;;5029524;28;20053;-72
2023/10/21 04:05:08;;;;;;;34.72;15.80;;;9.70;99.90;;;;;;5030848;28;20084;-70
2023/10/21 04:07:55;;;;;;;43.75;16.85;;;9.80;99.90;;;;;;5030212;28;20041;-70
2023/10/21 04:10:41;;;;;;;33.20;15.60;;;9.80;99.90;;;;;;5032341;28;20469;-71
2023/10/21 04:13:27;;;;;;;35.30;15.63;;;9.70;99.90;;;;;;5040741;28;20124;-71
2023/10/21 04:16:13;;;;;;;27.05;15.95;;;9.80;99.90;;;;;;5028796;28;20041;-70
2023/10/21 04:18:59;;;;;;;39.42;14.57;;;9.80;99.90;;;;;;5030989;28;20507;-71
2023/10/21 04:21:45;;;;;;;31.40;16.35;;;9.70;99.90;;;;;;5032521;28;20041;-70
2023/10/21 04:24:30;;;;;;;26.55;15.05;;;9.80;99.90;;;;;;5044454;28;20055;-71
2023/10/21 04:27:16;;;;;;;30.83;15.77;;;9.80;99.90;;;;;;5046762;28;20418;-71
2023/10/21 04:30:03;;;;;;;25.75;14.82;;;9.80;99.90;;;;;;5037745;28;20049;-71
2023/10/21 04:32:50;;;;;;;22.73;15.60;;;9.80;99.90;;;;;;5041623;28;20409;-71
2023/10/21 04:35:36;;;;;;;28.27;15.25;;;9.80;99.90;;;;;;5049572;28;20037;-71
2023/10/21 04:38:22;;;;;;;21.60;15.38;;;9.80;99.90;;;;;;5050334;28;20052;-74
2023/10/21 04:41:08;;;;;;;75.40;18.83;;;9.80;99.90;;;;;;5049052;28;20037;-73
2023/10/21 04:43:54;;;;;;;20.45;14.52;;;9.80;99.90;;;;;;5020302;28;20041;-70
2023/10/21 04:46:40;;;;;;;24.88;14.70;;;9.90;99.90;;;;;;5040346;28;20076;-70
2023/10/21 04:49:26;;;;;;;28.30;14.18;;;9.90;99.90;;;;;;5033200;28;20044;-68
2023/10/21 04:52:12;;;;;;;22.30;14.15;;;9.80;99.90;;;;;;5034776;28;20141;-68
2023/10/21 04:55:00;;;;;;;34.97;15.65;;;9.80;99.90;;;;;;5016677;28;20486;-70
2023/10/21 04:57:45;;;;;;;30.17;14.80;;;9.80;99.90;;;;;;5028952;28;20048;-69
2023/10/21 05:00:32;;;;;;;28.00;14.98;;;9.90;99.90;;;;;;5043569;28;20041;-69
2023/10/21 05:03:18;;;;;;;23.60;14.15;;;9.90;99.90;;;;;;5046198;28;20456;-69
2023/10/21 05:06:04;;;;;;;26.98;14.90;;;9.90;99.90;;;;;;5038123;28;20096;-69
2023/10/21 05:08:50;;;;;;;41.10;16.65;;;9.90;99.90;;;;;;5044621;28;20420;-68
2023/10/21 05:11:37;;;;;;;57.25;15.70;;;9.90;99.90;;;;;;5047192;28;20067;-69
2023/10/21 05:14:23;;;;;;;41.88;16.02;;;9.80;99.90;;;;;;5030385;28;20203;-68
2023/10/21 05:17:08;;;;;;;21.77;14.05;;;9.80;99.90;;;;;;5029934;28;20038;-68
2023/10/21 05:19:54;;;;;;;33.03;14.82;;;9.80;99.90;;;;;;5030759;28;20045;-68
2023/10/21 05:22:41;;;;;;;31.75;15.32;;;9.80;99.90;;;;;;5036194;28;20553;-68
2023/10/21 05:25:27;;;;;;;33.92;14.52;;;9.80;99.90;;;;;;5031217;28;20037;-68
2023/10/21 05:28:13;;;;;;;34.45;15.93;;;9.80;99.90;;;;;;5041605;28;20485;-68
2023/10/21 05:31:01;;;;;;;44.40;15.35;;;9.80;99.90;;;;;;5040347;28;20411;-67
2023/10/21 05:33:47;;;;;;;39.03;15.15;;;9.80;99.90;;;;;;5028346;28;20050;-68
2023/10/21 05:36:33;;;;;;;28.67;14.00;;;9.80;99.90;;;;;;5031782;28;20040;-68
2023/10/21 05:39:19;;;;;;;43.13;16.77;;;9.80;99.90;;;;;;5029121;28;20506;-67
2023/10/21 05:42:05;;;;;;;51.00;16.42;;;9.80;99.90;;;;;;5028982;28;20108;-68
2023/10/21 05:44:51;;;;;;;32.33;15.63;;;9.80;99.90;;;;;;5029063;28;20033;-68
2023/10/21 05:47:37;;;;;;;21.40;14.40;;;9.80;99.90;;;;;;5033695;28;20590;-69
2023/10/21 05:50:24;;;;;;;27.17;13.55;;;9.80;99.90;;;;;;5037230;28;20072;-68
2023/10/21 05:53:10;;;;;;;29.98;14.40;;;9.80;99.90;;;;;;5045078;28;20170;-69
2023/10/21 05:55:57;;;;;;;40.97;14.60;;;9.80;99.90;;;;;;5034320;28;20049;-69
2023/10/21 05:58:43;;;;;;;37.13;13.95;;;9.80;99.90;;;;;;5046683;28;20534;-69
2023/10/21 06:01:29;;;;;;;18.23;13.57;;;9.80;99.90;;;;;;5042824;28;20406;-69
2023/10/21 06:04:15;;;;;;;33.38;13.52;;;9.80;99.90;;;;;;5029837;28;20041;-69
2023/10/21 06:07:01;;;;;;;19.38;13.27;;;9.90;99.90;;;;;;5035227;28;20405;-69
2023/10/21 06:09:47;;;;;;;38.25;13.65;;;9.90;99.90;;;;;;5046765;28;20074;-69
2023/10/21 06:12:33;;;;;;;28.92;13.48;;;9.90;99.90;;;;;;5031016;28;20095;-69
2023/10/21 06:15:19;;;;;;;31.02;14.98;;;10.00;99.90;;;;;;5028136;28;20044;-69
2023/10/21 06:18:05;;;;;;;18.35;13.07;;;10.00;99.90;;;;;;5033387;28;20448;-70
2023/10/21 06:20:51;;;;;;;24.50;13.77;;;10.00;99.90;;;;;;5039607;28;20556;-69
2023/10/21 06:23:37;;;;;;;26.10;14.85;;;10.00;99.90;;;;;;5046557;28;20059;-71
2023/10/21 06:26:23;;;;;;;27.25;14.52;;;10.00;99.90;;;;;;5050307;28;20036;-68
2023/10/21 06:29:10;;;;;;;24.70;13.65;;;10.10;99.90;;;;;;5036872;28;20053;-66
2023/10/21 06:31:55;;;;;;;30.70;13.45;;;10.10;99.90;;;;;;5051190;28;20041;-68
2023/10/21 06:34:41;;;;;;;55.13;13.70;;;10.10;99.90;;;;;;5052485;28;20041;-68
2023/10/21 06:37:27;;;;;;;42.78;12.88;;;10.10;99.90;;;;;;5051632;28;20041;-68
2023/10/21 06:40:13;;;;;;;21.75;12.48;;;10.10;99.90;;;;;;5036355;28;20052;-68
2023/10/21 06:42:59;;;;;;;19.83;13.18;;;10.10;99.90;;;;;;5050641;28;20414;-68
2023/10/21 06:45:45;;;;;;;40.22;13.93;;;10.20;99.90;;;;;;5034071;28;20053;-67
2023/10/21 06:48:32;;;;;;;33.42;12.85;;;10.20;99.90;;;;;;5043748;28;20045;-66
2023/10/21 06:51:18;;;;;;;40.60;13.10;;;10.20;99.90;;;;;;5033539;28;20041;-67
2023/10/21 06:54:05;;;;;;;25.67;14.30;;;10.20;99.90;;;;;;5039102;28;20207;-67
2023/10/21 06:56:51;;;;;;;18.50;12.23;;;10.20;99.90;;;;;;5033942;28;20061;-68
2023/10/21 06:59:37;;;;;;;22.08;12.63;;;10.20;99.90;;;;;;5033835;28;20041;-67
2023/10/21 07:02:23;;;;;;;18.52;12.55;;;10.20;99.90;;;;;;5046648;28;20095;-68
2023/10/21 07:05:12;;;;;;;23.75;13.48;;;10.20;99.90;;;;;;5029549;28;20049;-68
2023/10/21 07:07:58;;;;;;;17.05;12.23;;;10.30;99.90;;;;;;5031409;28;20075;-68
2023/10/21 07:10:44;;;;;;;24.67;12.40;;;10.30;99.90;;;;;;5029730;28;20045;-68
2023/10/21 07:13:30;;;;;;;17.65;11.50;;;10.40;99.90;;;;;;5034598;28;20052;-69
2023/10/21 07:16:16;;;;;;;25.17;12.50;;;10.40;99.90;;;;;;5034204;28;20037;-67
2023/10/21 07:19:02;;;;;;;18.02;12.52;;;10.40;99.90;;;;;;5046984;28;20480;-67
2023/10/21 07:21:48;;;;;;;27.67;12.60;;;10.50;99.90;;;;;;5044939;28;20502;-69
2023/10/21 07:24:34;;;;;;;17.10;12.43;;;10.50;99.90;;;;;;5042343;28;20065;-70
2023/10/21 07:27:20;;;;;;;18.52;13.18;;;10.50;99.90;;;;;;5032289;28;20049;-70
2023/10/21 07:30:07;;;;;;;15.90;10.98;;;10.60;99.90;;;;;;5031785;28;20045;-69
2023/10/21 07:32:53;;;;;;;19.77;12.77;;;10.70;99.90;;;;;;5031905;28;20112;-70
2023/10/21 07:35:39;;;;;;;17.35;11.88;;;10.80;99.90;;;;;;5032445;28;20497;-70
2023/10/21 07:38:25;;;;;;;16.55;12.70;;;10.80;99.90;;;;;;5033959;28;20056;-70
2023/10/21 07:41:12;;;;;;;19.92;12.43;;;10.80;99.90;;;;;;5032501;28;20156;-70
2023/10/21 07:43:58;;;;;;;16.02;11.90;;;10.90;99.90;;;;;;5022485;28;20049;-70
2023/10/21 07:46:43;;;;;;;15.60;12.10;;;10.90;99.90;;;;;;5030953;28;20041;-70
2023/10/21 07:49:30;;;;;;;15.18;11.10;;;11.00;99.90;;;;;;5037203;28;20135;-70
2023/10/21 07:52:16;;;;;;;14.57;11.88;;;11.00;99.90;;;;;;5050929;28;20033;-69
2023/10/21 07:55:03;;;;;;;17.50;12.43;;;11.00;99.90;;;;;;5050425;28;20045;-69
2023/10/21 07:57:49;;;;;;;17.17;11.48;;;11.00;99.90;;;;;;5045996;28;20117;-69
2023/10/21 08:00:36;;;;;;;15.40;11.38;;;11.10;99.90;;;;;;5029714;28;20388;-70
2023/10/21 08:03:22;;;;;;;15.23;11.50;;;11.10;99.90;;;;;;5033553;28;20049;-68
2023/10/21 08:06:08;;;;;;;16.15;11.13;;;11.20;99.90;;;;;;5039532;28;20064;-69
2023/10/21 08:08:54;;;;;;;14.98;11.10;;;11.30;99.90;;;;;;5038138;28;20100;-68
2023/10/21 08:11:41;;;;;;;14.65;10.52;;;11.30;99.90;;;;;;5043165;28;20045;-69
2023/10/21 08:14:30;;;;;;;15.20;11.50;;;11.40;99.90;;;;;;5048764;28;20045;-69
2023/10/21 08:17:17;;;;;;;15.30;10.82;;;11.40;99.90;;;;;;5033876;28;20096;-69
2023/10/21 08:20:04;;;;;;;13.20;10.38;;;11.50;99.90;;;;;;5030120;28;20087;-68
2023/10/21 08:22:50;;;;;;;14.98;11.02;;;11.60;99.90;;;;;;5030498;28;20171;-70
2023/10/21 08:25:36;;;;;;;15.75;10.93;;;11.60;99.90;;;;;;5044643;28;20115;-69
2023/10/21 08:28:22;;;;;;;15.13;11.18;;;11.70;99.90;;;;;;5050329;28;20045;-69
2023/10/21 08:31:08;;;;;;;15.63;11.43;;;11.80;99.90;;;;;;5045337;28;20068;-69
2023/10/21 08:33:54;;;;;;;14.15;9.90;;;11.90;99.90;;;;;;5033294;28;20029;-69
2023/10/21 08:36:40;;;;;;;14.57;10.10;;;11.90;99.90;;;;;;5046383;28;20098;-69
2023/10/21 08:39:26;;;;;;;13.73;10.30;;;12.10;99.90;;;;;;5030738;28;20046;-69
2023/10/21 08:42:12;;;;;;;15.35;11.60;;;12.10;99.90;;;;;;5033281;28;20033;-69
2023/10/21 08:45:03;;;;;;;15.90;10.73;;;12.20;99.90;;;;;;5032840;28;20053;-69
2023/10/21 08:47:50;;;;;;;14.50;11.43;;;12.20;99.90;;;;;;5033299;28;20044;-68
2023/10/21 08:50:38;;;;;;;15.13;11.30;;;12.30;99.90;;;;;;5039505;28;20052;-68
2023/10/21 08:53:24;;;;;;;14.13;10.82;;;12.40;99.90;;;;;;5046214;28;20033;-68
2023/10/21 08:56:11;;;;;;;13.55;10.70;;;12.50;99.90;;;;;;5047894;28;20103;-66
2023/10/21 08:58:57;;;;;;;12.77;10.30;;;12.60;99.90;;;;;;5047360;28;20104;-65
2023/10/21 09:01:45;;;;;;;12.75;10.23;;;12.60;99.90;;;;;;5043734;28;20068;-65
2023/10/21 09:04:32;;;;;;;12.75;10.27;;;12.70;99.90;;;;;;5028891;28;20622;-66
2023/10/21 09:07:18;;;;;;;15.52;10.40;;;12.80;99.90;;;;;;5032568;28;20054;-66
2023/10/21 09:10:11;;;;;;;13.48;10.35;;;12.90;99.90;;;;;;5044659;28;20048;-65
2023/10/21 09:13:11;;;;;;;12.80;10.20;;;13.00;99.90;;;;;;5021966;28;20183;-63
2023/10/21 09:15:58;;;;;;;13.38;9.70;;;13.10;99.90;;;;;;5010990;28;20033;-64
2023/10/21 09:19:04;;;;;;;13.05;9.95;;;13.20;99.90;;;;;;5019060;28;20034;-65
2023/10/21 09:21:50;;;;;;;12.65;10.60;;;13.20;99.90;;;;;;5017109;28;20042;-66
2023/10/21 09:24:35;;;;;;;13.13;10.50;;;13.30;99.90;;;;;;5020110;28;20043;-64
2023/10/21 09:27:22;;;;;;;14.52;10.70;;;13.40;99.90;;;;;;5005022;28;20794;-64
2023/10/21 09:30:14;;;;;;;13.00;9.77;;;13.50;99.90;;;;;;5012641;28;20061;-66
2023/10/21 09:33:05;;;;;;;11.80;9.73;;;13.60;99.90;;;;;;5021819;28;20045;-66
2023/10/21 09:36:03;;;;;;;12.57;9.68;;;13.70;99.90;;;;;;5029878;28;20434;-65
2023/10/21 09:38:51;;;;;;;11.52;9.30;;;13.80;99.90;;;;;;5024930;28;20041;-65
2023/10/21 09:41:38;;;;;;;11.15;8.75;;;13.90;99.90;;;;;;5007808;28;20530;-65
2023/10/21 09:44:25;;;;;;;10.18;8.50;;;13.90;99.90;;;;;;5010059;28;20479;-65
2023/10/21 09:47:14;;;;;;;10.55;8.00;;;14.00;99.90;;;;;;5009955;28;20050;-65
2023/10/21 09:50:05;;;;;;;11.10;8.73;;;14.10;99.90;;;;;;5009165;28;20057;-65
2023/10/21 09:53:10;;;;;;;9.32;7.50;;;14.20;99.90;;;;;;5010197;28;20042;-65
2023/10/21 09:55:57;;;;;;;9.38;7.72;;;14.20;99.90;;;;;;5009677;28;20041;-66
2023/10/21 09:58:44;;;;;;;11.20;7.65;;;14.30;99.90;;;;;;5009327;28;20038;-65
2023/10/21 10:01:31;;;;;;;9.80;7.43;;;14.40;99.90;;;;;;5020699;28;20046;-65
2023/10/21 10:04:21;;;;;;;10.25;7.55;;;14.40;99.90;;;;;;5032875;28;20041;-65
2023/10/21 10:07:07;;;;;;;10.57;7.45;;;14.50;99.90;;;;;;5033085;28;20081;-66
2023/10/21 10:09:53;;;;;;;9.82;7.70;;;14.50;99.90;;;;;;5033204;28;20092;-66
2023/10/21 10:12:41;;;;;;;9.50;7.15;;;14.60;99.90;;;;;;5040600;28;20049;-66
2023/10/21 10:15:35;;;;;;;8.50;7.35;;;14.70;99.90;;;;;;5052391;28;20425;-66
2023/10/21 10:18:22;;;;;;;10.80;7.45;;;14.80;99.90;;;;;;5049864;28;20037;-65
2023/10/21 10:21:14;;;;;;;7.97;6.90;;;14.90;99.90;;;;;;5045385;28;20041;-65
2023/10/21 10:24:04;;;;;;;9.77;6.93;;;15.00;99.90;;;;;;5048418;28;20033;-65
2023/10/21 10:26:52;;;;;;;9.38;7.28;;;15.00;99.90;;;;;;5031405;28;20045;-66
2023/10/21 10:29:38;;;;;;;10.75;7.03;;;15.10;99.90;;;;;;5032705;28;20414;-66
2023/10/21 10:32:29;;;;;;;8.40;6.88;;;15.20;99.90;;;;;;5033701;28;20044;-65
2023/10/21 10:35:31;;;;;;;9.70;6.38;;;15.30;99.90;;;;;;5032528;28;20037;-65
2023/10/21 10:38:35;;;;;;;7.25;5.82;;;15.50;99.90;;;;;;5031867;28;20391;-66
2023/10/21 10:41:22;;;;;;;10.23;6.78;;;15.60;99.90;;;;;;5037492;28;20036;-66
2023/10/21 10:44:08;;;;;;;7.78;6.13;;;15.70;99.90;;;;;;5033210;28;20044;-65
2023/10/21 10:46:54;;;;;;;8.23;5.90;;;15.80;99.90;;;;;;5035156;28;20103;-65
2023/10/21 10:49:57;;;;;;;8.65;5.88;;;15.90;99.90;;;;;;5043734;28;20061;-65
2023/10/21 10:52:43;;;;;;;6.72;5.30;;;15.90;99.90;;;;;;5032864;28;20044;-66
2023/10/21 10:55:29;;;;;;;7.13;5.03;;;16.00;99.90;;;;;;5044192;28;20346;-66
2023/10/21 10:58:18;;;;;;;6.18;4.43;;;16.10;99.90;;;;;;5031531;28;20482;-65
2023/10/21 11:01:07;;;;;;;6.05;4.22;;;16.20;99.90;;;;;;5031700;28;20057;-65
2023/10/21 11:03:57;;;;;;;8.02;5.00;;;16.30;99.90;;;;;;5034130;28;20517;-66
2023/10/21 11:06:45;;;;;;;7.15;3.67;;;16.50;99.90;;;;;;5038352;28;20041;-65
2023/10/21 11:09:31;;;;;;;6.30;4.30;;;16.60;99.90;;;;;;5040630;28;20057;-64
2023/10/21 11:12:17;;;;;;;5.82;3.17;;;16.80;99.90;;;;;;5030731;28;20116;-65
2023/10/21 11:15:06;;;;;;;4.07;2.28;;;16.90;99.90;;;;;;5032170;28;20049;-67
2023/10/21 11:17:53;;;;;;;4.30;2.03;;;17.00;99.90;;;;;;5036509;28;20045;-66
2023/10/21 11:20:47;;;;;;;3.03;1.55;;;17.10;99.90;;;;;;5032465;28;20037;-65
2023/10/21 11:23:34;;;;;;;2.13;1.30;;;17.20;99.90;;;;;;5031719;28;20037;-66
2023/10/21 11:26:22;;;;;;;1.88;1.30;;;17.20;99.90;;;;;;5043501;28;20042;-66
2023/10/21 11:29:08;;;;;;;2.03;1.40;;;17.30;99.90;;;;;;5039136;28;20550;-65
2023/10/21 11:31:57;;;;;;;1.90;1.25;;;17.40;99.90;;;;;;5034527;28;20046;-66
2023/10/21 11:34:44;;;;;;;2.35;1.00;;;17.40;99.90;;;;;;5036446;28;20048;-66
2023/10/21 11:37:30;;;;;;;1.08;0.75;;;17.40;99.90;;;;;;5043764;28;20128;-65
2023/10/21 11:40:17;;;;;;;1.38;0.88;;;17.50;99.90;;;;;;5043457;28;20049;-66
2023/10/21 11:43:07;;;;;;;1.00;0.73;;;17.60;99.90;;;;;;5035433;28;20049;-66
2023/10/21 11:45:54;;;;;;;3.03;1.02;;;17.70;99.90;;;;;;5032309;28;20042;-66
2023/10/21 11:48:40;;;;;;;2.72;0.80;;;17.80;99.90;;;;;;5039632;28;20040;-66
2023/10/21 11:51:29;;;;;;;1.23;1.00;;;17.90;99.90;;;;;;5050060;28;20544;-67
2023/10/21 11:54:33;;;;;;;1.95;1.10;;;18.00;99.90;;;;;;5029662;28;20048;-66
2023/10/21 11:57:41;;;;;;;6.00;2.13;;;18.10;99.90;;;;;;5036052;28;20036;-65
2023/10/21 12:07:31;;;;;;;5.00;1.13;;;18.30;99.90;;;;;;5031211;28;20045;-65
2023/10/21 12:16:32;;;;;;;1.77;1.10;;;18.50;99.90;;;;;;5030221;28;20050;-66
2023/10/21 12:34:34;;;;;;;2.35;1.30;;;18.40;99.90;;;;;;5047432;28;20045;-65
2023/10/21 12:49:17;;;;;;;2.30;0.73;;;18.50;99.90;;;;;;5008253;28;20072;-66
2023/10/21 12:52:10;;;;;;;3.60;0.95;;;18.50;99.90;;;;;;4999577;28;20062;-68
2023/10/21 12:54:56;;;;;;;1.70;1.02;;;18.50;99.90;;;;;;5005868;28;20048;-67
2023/10/21 12:57:43;;;;;;;1.05;0.68;;;18.60;99.90;;;;;;5006984;28;20066;-66
2023/10/21 13:00:30;;;;;;;2.70;0.80;;;18.60;99.90;;;;;;4992097;28;20498;-67
2023/10/21 13:03:17;;;;;;;3.00;0.88;;;18.70;99.90;;;;;;4988437;28;20046;-66
2023/10/21 13:06:05;;;;;;;1.80;0.90;;;18.80;99.90;;;;;;4987288;28;20596;-65
2023/10/21 13:08:51;;;;;;;0.70;0.70;;;18.80;99.90;;;;;;5003032;28;20137;-67
2023/10/21 13:11:37;;;;;;;3.42;0.85;;;18.80;99.90;;;;;;5006876;28;20527;-66
2023/10/21 13:14:30;;;;;;;4.38;1.27;;;18.80;99.90;;;;;;4987802;28;20088;-67
2023/10/21 13:17:16;;;;;;;4.10;1.20;;;18.80;99.90;;;;;;4983667;28;20039;-66
2023/10/21 13:20:04;;;;;;;3.00;1.40;;;18.80;99.90;;;;;;4968628;28;20047;-66
2023/10/21 13:22:54;;;;;;;2.42;1.20;;;18.80;99.90;;;;;;4967085;28;20046;-66
2023/10/21 13:25:40;;;;;;;1.67;1.00;;;18.70;99.90;;;;;;4992944;28;20040;-66
2023/10/21 13:28:27;;;;;;;3.97;1.80;;;18.80;99.90;;;;;;5014654;28;20076;-67
2023/10/21 13:31:13;;;;;;;8.65;2.78;;;18.80;99.90;;;;;;5027914;28;20050;-68
2023/10/21 13:34:02;;;;;;;5.10;2.60;;;18.90;99.90;;;;;;5014348;28;20044;-67
2023/10/21 13:36:48;;;;;;;4.85;2.30;;;18.90;99.90;;;;;;5030735;28;20091;-65
2023/10/21 13:39:34;;;;;;;2.28;1.40;;;18.90;99.90;;;;;;5024232;28;20495;-66
2023/10/21 13:42:20;;;;;;;2.05;1.08;;;18.90;99.90;;;;;;5013959;28;20561;-66
2023/10/21 13:45:13;;;;;;;2.83;1.23;;;19.00;99.90;;;;;;5009164;28;20490;-66
2023/10/21 13:48:05;;;;;;;3.00;1.20;;;19.00;99.70;;;;;;5029672;28;20033;-67
2023/10/21 13:50:53;;;;;;;4.65;2.45;;;19.00;99.80;;;;;;5016704;28;20117;-65
2023/10/21 13:53:39;;;;;;;5.70;2.70;;;19.00;99.80;;;;;;5017933;28;20158;-67
2023/10/21 13:56:25;;;;;;;6.32;3.45;;;19.00;99.80;;;;;;5025420;28;20045;-67
2023/10/21 13:59:13;;;;;;;5.40;2.72;;;18.90;99.70;;;;;;5010124;28;20049;-68
2023/10/21 14:02:00;;;;;;;5.38;2.60;;;18.90;99.70;;;;;;5008090;28;20405;-67
2023/10/21 14:04:46;;;;;;;4.22;2.40;;;18.90;99.70;;;;;;5013737;28;20626;-67
2023/10/21 14:07:32;;;;;;;4.85;2.47;;;18.90;99.80;;;;;;5023380;28;20117;-67
2023/10/21 14:10:17;;;;;;;5.63;2.35;;;18.90;99.80;;;;;;5031265;28;20119;-69
2023/10/21 14:13:05;;;;;;;6.72;2.75;;;18.90;99.70;;;;;;5034563;28;20064;-66
2023/10/21 14:15:54;;;;;;;4.80;2.20;;;18.90;99.80;;;;;;5037969;28;20091;-66
2023/10/21 14:35:53;;;;;;;3.35;1.52;;;19.10;99.40;;;;;;5044512;28;20037;-66
2023/10/21 14:38:39;;;;;;;4.07;1.60;;;19.20;99.40;;;;;;5020486;28;20045;-66
2023/10/21 14:41:25;;;;;;;2.67;1.52;;;19.20;99.10;;;;;;5008228;28;20057;-67
2023/10/21 14:44:11;;;;;;;3.67;1.90;;;19.20;99.00;;;;;;5009238;28;20511;-66
2023/10/21 14:46:57;;;;;;;3.13;1.90;;;19.20;98.80;;;;;;5016064;28;20053;-66
2023/10/21 14:49:43;;;;;;;8.25;3.60;;;19.30;98.80;;;;;;5017829;28;20053;-66
2023/10/21 14:52:29;;;;;;;6.93;3.28;;;19.30;98.60;;;;;;5027609;28;20418;-66
2023/10/21 14:55:15;;;;;;;6.35;2.90;;;19.30;98.50;;;;;;5035944;28;20048;-66
2023/10/21 14:58:01;;;;;;;4.88;2.30;;;19.30;98.50;;;;;;5031525;28;20045;-67
2023/10/21 15:00:47;;;;;;;5.40;2.53;;;19.30;98.40;;;;;;5029539;28;20045;-66
2023/10/21 15:03:33;;;;;;;4.63;2.65;;;19.30;98.30;;;;;;5036344;28;20119;-67
2023/10/21 15:06:19;;;;;;;4.03;1.98;;;19.30;98.10;;;;;;5026829;28;20201;-67
2023/10/21 15:09:05;;;;;;;5.45;2.80;;;19.30;98.00;;;;;;5035626;28;20132;-65
2023/10/21 15:11:51;;;;;;;4.85;2.58;;;19.20;98.00;;;;;;5013531;28;20041;-65
2023/10/21 15:14:37;;;;;;;5.47;3.20;;;19.20;98.00;;;;;;5021955;28;20048;-65
2023/10/21 15:17:23;;;;;;;4.93;2.53;;;19.20;98.00;;;;;;5024195;28;20045;-65